TimeEST,TemperatureF,Dew PointF,Humidity,Sea Level PressureIn,VisibilityMPH,Wind Direction,Wind SpeedMPH,Gust SpeedMPH,PrecipitationIn,Events,Conditions,WindDirDegrees,DateUTC
12:15 AM,44.6,39.9,84,30.15,10.0,Calm,Calm,-,N/A,,Overcast,0,2013-01-03 05:15:00
12:35 AM,44.2,39.2,82,30.14,10.0,Calm,Calm,-,N/A,,Overcast,0,2013-01-03 05:35:00
12:55 AM,44.2,39.2,82,30.14,10.0,Calm,Calm,-,N/A,,Overcast,0,2013-01-03 05:55:00
1:15 AM,44.1,39.0,82,30.13,10.0,Calm,Calm,-,N/A,,Overcast,0,2013-01-03 06:15:00
1:35 AM,43.9,39.0,83,30.13,10.0,ESE,3.5,-,N/A,,Overcast,120,2013-01-03 06:35:00
1:55 AM,43.7,38.7,82,30.14,10.0,Calm,Calm,-,N/A,,Mostly Cloudy,0,2013-01-03 06:55:00
2:15 AM,43.7,38.8,83,30.15,10.0,Calm,Calm,-,N/A,,Mostly Cloudy,0,2013-01-03 07:15:00
2:35 AM,43.5,39.0,84,30.14,10.0,Calm,Calm,-,N/A,,Overcast,0,2013-01-03 07:35:00
2:55 AM,43.2,39.2,86,30.15,10.0,Calm,Calm,-,N/A,,Light Drizzle,0,2013-01-03 07:55:00
3:15 AM,43.2,39.2,86,30.16,10.0,Calm,Calm,-,N/A,,Overcast,0,2013-01-03 08:15:00
3:35 AM,43.0,39.2,86,30.16,10.0,Calm,Calm,-,N/A,,Overcast,0,2013-01-03 08:35:00
3:55 AM,42.8,39.4,88,30.16,10.0,Calm,Calm,-,N/A,,Overcast,0,2013-01-03 08:55:00
4:15 AM,42.4,39.2,88,30.16,10.0,North,3.5,-,N/A,,Overcast,10,2013-01-03 09:15:00
4:35 AM,42.3,39.2,89,30.16,10.0,North,3.5,-,N/A,Rain,Light Rain,350,2013-01-03 09:35:00
4:55 AM,42.3,39.6,90,30.16,7.0,Calm,Calm,-,N/A,,Light Drizzle,0,2013-01-03 09:55:00
5:15 AM,42.3,39.6,90,30.16,7.0,Calm,Calm,-,N/A,Rain,Light Rain,0,2013-01-03 10:15:00
5:35 AM,42.1,39.6,91,30.15,7.0,SE,5.8,-,N/A,,Overcast,130,2013-01-03 10:35:00
5:55 AM,41.9,39.2,90,30.14,7.0,Calm,Calm,-,N/A,,Overcast,0,2013-01-03 10:55:00
6:15 AM,41.9,38.7,88,30.16,7.0,Calm,Calm,-,N/A,,Overcast,0,2013-01-03 11:15:00
6:35 AM,41.9,38.5,88,30.16,7.0,Calm,Calm,-,N/A,,Overcast,0,2013-01-03 11:35:00
6:55 AM,41.9,38.7,88,30.16,7.0,Calm,Calm,-,N/A,,Overcast,0,2013-01-03 11:55:00
7:15 AM,41.9,38.8,89,30.16,7.0,Calm,Calm,-,N/A,,Overcast,0,2013-01-03 12:15:00
7:35 AM,41.9,39.0,90,30.17,7.0,Calm,Calm,-,N/A,,Overcast,0,2013-01-03 12:35:00
7:55 AM,41.9,39.2,90,30.18,7.0,Calm,Calm,-,N/A,,Overcast,0,2013-01-03 12:55:00
8:15 AM,41.9,39.2,90,30.18,7.0,Calm,Calm,-,N/A,,Overcast,0,2013-01-03 13:15:00
8:35 AM,42.1,39.2,90,30.19,7.0,North,3.5,-,N/A,,Overcast,360,2013-01-03 13:35:00
8:55 AM,42.3,38.8,88,30.19,7.0,NE,4.6,-,N/A,,Overcast,40,2013-01-03 13:55:00
9:15 AM,42.3,38.3,86,30.21,7.0,NE,4.6,-,N/A,,Overcast,50,2013-01-03 14:15:00
9:35 AM,42.4,38.5,86,30.21,7.0,NE,5.8,-,N/A,,Overcast,40,2013-01-03 14:35:00
9:55 AM,42.8,38.5,85,30.21,7.0,NNE,3.5,-,N/A,,Overcast,30,2013-01-03 14:55:00
10:15 AM,42.8,38.3,84,30.20,7.0,NNE,5.8,-,N/A,,Overcast,30,2013-01-03 15:15:00
10:35 AM,42.8,38.3,84,30.22,7.0,NNE,3.5,-,N/A,,Overcast,20,2013-01-03 15:35:00
10:55 AM,43.3,38.5,83,30.21,7.0,NE,3.5,-,N/A,,Overcast,50,2013-01-03 15:55:00
11:35 AM,43.3,37.8,81,30.20,7.0,Calm,Calm,-,N/A,,Overcast,0,2013-01-03 16:35:00
11:55 AM,43.7,38.1,81,30.19,7.0,Calm,Calm,-,N/A,,Overcast,0,2013-01-03 16:55:00
12:15 PM,43.9,37.9,80,30.18,7.0,NE,4.6,-,N/A,,Overcast,40,2013-01-03 17:15:00
12:35 PM,43.9,37.9,80,30.17,7.0,Calm,Calm,-,N/A,,Overcast,0,2013-01-03 17:35:00
12:55 PM,44.1,37.4,77,30.18,7.0,Calm,Calm,-,N/A,,Overcast,0,2013-01-03 17:55:00
1:15 PM,44.2,36.5,74,30.16,10.0,Calm,Calm,-,N/A,,Overcast,0,2013-01-03 18:15:00
1:35 PM,44.4,36.7,74,30.17,10.0,Calm,Calm,-,N/A,,Overcast,0,2013-01-03 18:35:00
1:55 PM,44.6,36.5,73,30.16,10.0,Calm,Calm,-,N/A,,Overcast,0,2013-01-03 18:55:00
2:15 PM,44.8,36.9,74,30.16,10.0,Calm,Calm,-,N/A,,Overcast,0,2013-01-03 19:15:00
2:35 PM,44.8,36.7,73,30.16,10.0,Calm,Calm,-,N/A,,Overcast,0,2013-01-03 19:35:00
2:55 PM,44.6,36.1,72,30.16,10.0,Calm,Calm,-,N/A,,Overcast,0,2013-01-03 19:55:00
3:15 PM,44.8,36.7,73,30.17,10.0,Calm,Calm,-,N/A,,Overcast,0,2013-01-03 20:15:00
3:35 PM,44.8,36.9,74,30.18,7.0,Calm,Calm,-,N/A,,Overcast,0,2013-01-03 20:35:00
3:55 PM,45.0,37.4,75,30.19,10.0,Calm,Calm,-,N/A,,Overcast,0,2013-01-03 20:55:00
4:15 PM,44.8,37.9,77,30.19,10.0,Calm,Calm,-,N/A,,Overcast,0,2013-01-03 21:15:00
4:55 PM,45.0,37.4,75,30.20,10.0,Calm,Calm,-,N/A,,Overcast,0,2013-01-03 21:55:00
5:15 PM,44.6,38.3,79,30.20,10.0,Calm,Calm,-,N/A,,Overcast,0,2013-01-03 22:15:00
5:35 PM,43.7,38.3,81,30.21,10.0,Calm,Calm,-,N/A,,Overcast,0,2013-01-03 22:35:00
5:55 PM,43.2,38.5,84,30.22,10.0,Calm,Calm,-,N/A,,Scattered Clouds,0,2013-01-03 22:55:00
6:15 PM,41.5,38.3,88,30.23,7.0,Calm,Calm,-,N/A,,Clear,0,2013-01-03 23:15:00
6:35 PM,40.3,37.8,91,30.23,5.0,Calm,Calm,-,N/A,,Clear,0,2013-01-03 23:35:00
6:55 PM,39.4,37.2,92,30.23,4.0,Calm,Calm,-,N/A,,Clear,0,2013-01-03 23:55:00
7:15 PM,39.6,37.6,93,30.23,4.0,Calm,Calm,-,N/A,,Clear,0,2013-01-04 00:15:00
7:35 PM,38.5,36.9,94,30.24,1.8,Calm,Calm,-,N/A,,Mist,0,2013-01-04 00:35:00
7:55 PM,37.2,35.6,94,30.25,1.2,Calm,Calm,-,N/A,,Mist,0,2013-01-04 00:55:00
8:15 PM,36.7,35.6,96,30.25,1.2,Calm,Calm,-,N/A,,Mostly Cloudy,0,2013-01-04 01:15:00
8:35 PM,36.0,34.9,96,30.26,1.2,Calm,Calm,-,N/A,,Overcast,0,2013-01-04 01:35:00
8:55 PM,36.0,35.1,97,30.26,2.0,Calm,Calm,-,N/A,,Overcast,0,2013-01-04 01:55:00
9:15 PM,34.9,34.0,97,30.26,1.2,Calm,Calm,-,N/A,,Scattered Clouds,0,2013-01-04 02:15:00
9:35 PM,34.2,33.3,97,30.27,1.2,Calm,Calm,-,N/A,,Mist,0,2013-01-04 02:35:00
9:55 PM,34.0,33.1,96,30.27,1.2,Calm,Calm,-,N/A,,Mist,0,2013-01-04 02:55:00
10:15 PM,32.4,32.0,99,30.27,1.2,Calm,Calm,-,N/A,,Mist,0,2013-01-04 03:15:00
10:35 PM,32.5,32.0,98,30.27,1.5,Calm,Calm,-,N/A,,Mist,0,2013-01-04 03:35:00
10:55 PM,31.5,30.6,96,30.28,2.0,Calm,Calm,-,N/A,,Clear,0,2013-01-04 03:55:00
11:15 PM,30.9,30.0,96,30.28,1.5,Calm,Calm,-,N/A,,Mist,0,2013-01-04 04:15:00
11:35 PM,31.1,30.2,96,30.28,0.2,Calm,Calm,-,N/A,Fog,Light Freezing Fog,0,2013-01-04 04:35:00
11:55 PM,30.7,29.8,96,30.28,0.5,Calm,Calm,-,N/A,Fog,Light Freezing Fog,0,2013-01-04 04:55:00